createdAt,value
2023-04-20T00:05:27.031Z,4.57
2023-04-20T00:12:28.802Z,4.10
2023-04-20T00:19:33.120Z,3.80
2023-04-20T00:26:34.696Z,4.55
2023-04-20T00:33:36.389Z,3.58
2023-04-20T00:40:37.974Z,3.85
2023-04-20T00:47:39.614Z,4.32
2023-04-20T00:54:41.206Z,4.18
2023-04-20T01:01:43.869Z,3.22
2023-04-20T01:08:49.593Z,3.90
2023-04-20T01:15:51.244Z,4.32
2023-04-20T01:22:54.467Z,4.18
2023-04-20T01:29:56.244Z,4.28
2023-04-20T01:36:57.946Z,4.78
2023-04-20T01:43:59.577Z,4.65
2023-04-20T01:51:01.204Z,5.00
2023-04-20T01:58:02.770Z,4.82
2023-04-20T02:14:03.809Z,4.78
2023-04-20T02:21:06.137Z,5.38
2023-04-20T02:28:07.892Z,4.65
2023-04-20T02:35:09.923Z,5.30
2023-04-20T02:42:11.610Z,5.60
2023-04-20T02:49:15.517Z,4.72
2023-04-20T02:56:19.386Z,5.88
2023-04-20T03:03:28.071Z,5.68
2023-04-20T03:10:31.190Z,5.07
2023-04-20T03:17:39.835Z,5.10
2023-04-20T03:24:41.740Z,5.55
2023-04-20T03:32:15.608Z,6.40
2023-04-20T03:39:17.864Z,6.30
2023-04-20T03:46:22.043Z,6.22
2023-04-20T03:53:24.972Z,6.50
2023-04-20T04:00:27.655Z,6.57
2023-04-20T04:07:38.958Z,7.15
2023-04-20T04:14:40.940Z,7.28
2023-04-20T04:21:44.052Z,7.75
2023-04-20T04:28:47.088Z,6.68
2023-04-20T04:35:53.615Z,6.78
2023-04-20T04:42:55.807Z,6.70
2023-04-20T04:49:59.744Z,7.57
2023-04-20T04:57:03.790Z,7.90
2023-04-20T05:04:05.617Z,7.63
2023-04-20T05:11:07.348Z,7.38
2023-04-20T05:18:09.118Z,6.82
2023-04-20T05:25:13.808Z,8.10
2023-04-20T05:32:15.618Z,7.15
2023-04-20T05:39:17.671Z,8.23
2023-04-20T05:46:19.590Z,8.10
2023-04-20T05:53:22.078Z,9.18
2023-04-20T06:00:26.034Z,8.07
2023-04-20T06:07:27.887Z,9.02
2023-04-20T06:14:29.569Z,9.43
2023-04-20T06:21:31.704Z,9.63
2023-04-20T06:28:33.447Z,7.22
2023-04-20T06:35:35.154Z,8.13
2023-04-20T06:42:37.362Z,8.50
2023-04-20T06:49:39.483Z,7.97
2023-04-20T06:56:41.095Z,8.25
2023-04-20T07:03:43.552Z,7.97
2023-04-20T07:10:45.235Z,9.23
2023-04-20T07:17:46.855Z,10.15
2023-04-20T07:24:48.530Z,8.60
2023-04-20T07:31:50.247Z,10.07
2023-04-20T07:38:51.892Z,8.35
2023-04-20T07:45:53.551Z,7.55
2023-04-20T07:52:55.189Z,8.18
2023-04-20T07:59:56.845Z,7.70
2023-04-20T08:06:58.532Z,7.53
2023-04-20T08:14:00.368Z,7.53
2023-04-20T08:21:02.059Z,7.55
2023-04-20T08:28:04.228Z,7.70
2023-04-20T08:35:08.821Z,8.13
2023-04-20T08:42:10.684Z,8.35
2023-04-20T08:49:12.600Z,6.93
2023-04-20T08:56:14.207Z,7.75
2023-04-20T09:03:16.126Z,8.30
2023-04-20T09:10:17.912Z,8.13
2023-04-20T09:17:33.861Z,7.65
2023-04-20T09:24:37.105Z,7.50
2023-04-20T09:31:38.815Z,7.32
2023-04-20T09:38:40.567Z,6.55
2023-04-20T09:45:42.214Z,7.32
2023-04-20T09:52:44.179Z,8.30
2023-04-20T09:59:46.574Z,5.75
2023-04-20T10:06:55.588Z,5.85
2023-04-20T10:13:57.990Z,6.80
2023-04-20T10:21:11.439Z,5.38
2023-04-20T10:28:13.147Z,5.30
2023-04-20T10:35:16.190Z,7.38
2023-04-20T10:42:18.290Z,7.28
2023-04-20T10:49:20.219Z,6.47
2023-04-20T10:56:21.919Z,51.13
2023-04-20T11:03:23.621Z,75.43
2023-04-20T11:10:46.431Z,39.55
2023-04-20T11:17:48.121Z,46.50
2023-04-20T11:24:50.245Z,101.60
2023-04-20T11:31:52.106Z,101.53
2023-04-20T11:38:53.947Z,65.07
2023-04-20T11:45:55.653Z,72.13
2023-04-20T11:52:57.239Z,66.18
2023-04-20T11:59:58.887Z,70.20
2023-04-20T12:07:02.084Z,75.28
2023-04-20T12:14:04.867Z,62.47
2023-04-20T12:21:06.569Z,9.52
2023-04-20T12:28:08.298Z,10.73
2023-04-20T12:35:10.250Z,7.53
2023-04-20T12:42:11.913Z,7.40
2023-04-20T12:49:13.488Z,7.75
2023-04-20T12:56:15.299Z,7.95
2023-04-20T13:03:17.082Z,8.15
2023-04-20T13:10:23.538Z,7.90
2023-04-20T13:17:28.354Z,7.93
2023-04-20T13:24:30.131Z,7.70
2023-04-20T13:31:33.333Z,6.82
2023-04-20T13:38:34.954Z,6.38
2023-04-20T13:45:36.851Z,6.55
2023-04-20T13:52:39.587Z,6.72
2023-04-20T13:59:41.233Z,7.50
2023-04-20T14:06:43.044Z,7.18
2023-04-20T14:13:44.829Z,6.28
2023-04-20T14:20:46.596Z,6.78
2023-04-20T14:27:48.114Z,6.75
2023-04-20T14:34:49.666Z,6.57
2023-04-20T14:41:51.290Z,5.93
2023-04-20T14:48:52.928Z,5.78
2023-04-20T14:55:54.857Z,5.50
2023-04-20T15:02:56.834Z,5.43
2023-04-20T15:09:58.529Z,5.35
2023-04-20T15:17:00.093Z,4.50
2023-04-20T15:24:01.727Z,4.93
2023-04-20T15:31:03.298Z,4.28
2023-04-20T15:38:05.006Z,4.70
2023-04-20T15:45:07.129Z,6.70
2023-04-20T15:52:08.702Z,4.80
2023-04-20T15:59:10.236Z,4.43
2023-04-20T16:06:12.355Z,4.93
2023-04-20T16:13:13.879Z,5.00
2023-04-20T16:20:15.435Z,4.90
2023-04-20T16:27:17.235Z,4.35
2023-04-20T16:34:19.661Z,4.97
2023-04-20T16:41:21.821Z,4.68
2023-04-20T16:48:23.456Z,5.05
2023-04-20T16:55:26.057Z,4.70
2023-04-20T17:02:32.795Z,5.10
2023-04-20T17:09:34.684Z,4.78
2023-04-20T17:16:36.289Z,7.90
2023-04-20T17:23:37.883Z,6.10
2023-04-20T17:30:40.859Z,5.65
2023-04-20T17:37:42.600Z,5.60
2023-04-20T17:44:44.133Z,6.30
2023-04-20T17:51:45.765Z,5.63
2023-04-20T17:58:48.231Z,5.05
2023-04-20T18:05:49.810Z,4.88
2023-04-20T18:12:51.875Z,5.53
2023-04-20T18:19:53.818Z,4.85
2023-04-20T18:26:55.349Z,5.55
2023-04-20T18:33:57.020Z,4.93
2023-04-20T18:40:59.745Z,5.03
2023-04-20T18:48:01.440Z,5.10
2023-04-20T18:55:03.925Z,4.63
2023-04-20T19:02:05.875Z,5.07
2023-04-20T19:09:08.312Z,4.60
2023-04-20T19:16:11.140Z,4.75
2023-04-20T19:23:12.725Z,4.75
2023-04-20T19:30:14.359Z,5.10
2023-04-20T19:37:15.979Z,4.70
2023-04-20T19:44:17.671Z,4.82
2023-04-20T19:51:19.418Z,5.00
2023-04-20T19:58:21.004Z,5.20
2023-04-20T20:05:22.661Z,4.85
2023-04-20T20:12:24.194Z,4.65
2023-04-20T20:19:25.852Z,5.60
2023-04-20T20:26:27.457Z,4.65
2023-04-20T20:33:28.983Z,4.90
2023-04-20T20:40:31.195Z,15.40
2023-04-20T20:47:33.564Z,4.47
2023-04-20T20:54:35.225Z,17.15
2023-04-20T21:01:36.961Z,5.32
2023-04-20T21:08:38.979Z,25.73
2023-04-20T21:15:40.875Z,4.50
2023-04-20T21:22:42.472Z,4.63
2023-04-20T21:29:44.028Z,4.90
2023-04-20T21:36:45.838Z,4.28
2023-04-20T21:43:47.434Z,4.00
2023-04-20T21:50:49.017Z,4.28
2023-04-20T21:57:50.638Z,4.30
2023-04-20T22:04:52.410Z,4.38
2023-04-20T22:11:54.146Z,4.25
2023-04-20T22:18:55.814Z,4.68
2023-04-20T22:25:57.373Z,4.40
2023-04-20T22:32:58.986Z,4.93
2023-04-20T22:40:00.684Z,4.50
2023-04-20T22:47:02.446Z,4.28
2023-04-20T22:54:04.262Z,4.07
2023-04-20T23:01:05.951Z,4.38
2023-04-20T23:08:07.660Z,4.40
2023-04-20T23:15:09.580Z,4.45
2023-04-20T23:22:11.160Z,3.95
2023-04-20T23:29:12.722Z,3.90
2023-04-20T23:36:14.332Z,3.65
2023-04-20T23:43:15.915Z,4.65
2023-04-20T23:50:17.540Z,4.10
2023-04-20T23:57:19.048Z,4.50
